sensor_id;sensor_type;location;lat;lon;timestamp;pressure;altitude;pressure_sealevel;temperature;humidity
75855;BME280;64502;59.976;30.316;2024-03-29T00:00:01;99705.06;;;9.32;49.77
75855;BME280;64502;59.976;30.316;2024-03-29T00:02:27;99710.13;;;9.36;50.93
75855;BME280;64502;59.976;30.316;2024-03-29T00:04:52;99706.44;;;9.38;52.10
75855;BME280;64502;59.976;30.316;2024-03-29T00:07:19;99708.03;;;9.41;50.74
75855;BME280;64502;59.976;30.316;2024-03-29T00:09:44;99699.19;;;9.42;51.38
75855;BME280;64502;59.976;30.316;2024-03-29T00:12:11;99697.19;;;9.45;50.87
75855;BME280;64502;59.976;30.316;2024-03-29T00:14:36;99690.94;;;9.46;51.53
75855;BME280;64502;59.976;30.316;2024-03-29T00:17:05;99680.31;;;9.48;50.09
75855;BME280;64502;59.976;30.316;2024-03-29T00:19:30;99686.34;;;9.50;50.19
75855;BME280;64502;59.976;30.316;2024-03-29T00:21:57;99678.44;;;9.50;50.58
75855;BME280;64502;59.976;30.316;2024-03-29T00:24:23;99677.59;;;9.49;49.73
75855;BME280;64502;59.976;30.316;2024-03-29T00:26:49;99669.88;;;9.46;49.69
75855;BME280;64502;59.976;30.316;2024-03-29T00:29:15;99683.03;;;9.46;50.02
75855;BME280;64502;59.976;30.316;2024-03-29T00:31:40;99667.59;;;9.42;49.98
75855;BME280;64502;59.976;30.316;2024-03-29T00:34:07;99652.94;;;9.38;51.08
75855;BME280;64502;59.976;30.316;2024-03-29T00:36:32;99652.19;;;9.36;50.26
75855;BME280;64502;59.976;30.316;2024-03-29T00:38:58;99650.44;;;9.36;49.51
75855;BME280;64502;59.976;30.316;2024-03-29T00:41:24;99650.53;;;9.34;50.78
75855;BME280;64502;59.976;30.316;2024-03-29T00:43:49;99641.81;;;9.34;49.37
75855;BME280;64502;59.976;30.316;2024-03-29T00:46:16;99642.63;;;9.34;51.19
75855;BME280;64502;59.976;30.316;2024-03-29T00:48:42;99638.22;;;9.35;50.19
75855;BME280;64502;59.976;30.316;2024-03-29T00:51:09;99631.28;;;9.34;50.56
75855;BME280;64502;59.976;30.316;2024-03-29T00:53:34;99629.47;;;9.34;49.82
75855;BME280;64502;59.976;30.316;2024-03-29T00:58:44;99626.09;;;9.32;49.04
75855;BME280;64502;59.976;30.316;2024-03-29T01:01:10;99613.16;;;9.29;50.29
75855;BME280;64502;59.976;30.316;2024-03-29T01:03:36;99615.91;;;9.28;49.51
75855;BME280;64502;59.976;30.316;2024-03-29T01:06:01;99608.44;;;9.22;50.55
75855;BME280;64502;59.976;30.316;2024-03-29T01:08:27;99605.41;;;9.15;50.92
75855;BME280;64502;59.976;30.316;2024-03-29T01:10:53;99606.88;;;9.06;50.13
75855;BME280;64502;59.976;30.316;2024-03-29T01:13:18;99602.47;;;8.94;50.38
75855;BME280;64502;59.976;30.316;2024-03-29T01:15:46;99599.72;;;8.83;50.96
75855;BME280;64502;59.976;30.316;2024-03-29T01:18:11;99608.28;;;8.74;51.22
75855;BME280;64502;59.976;30.316;2024-03-29T01:20:38;99601.94;;;8.63;52.08
75855;BME280;64502;59.976;30.316;2024-03-29T01:23:03;99593.81;;;8.54;51.94
75855;BME280;64502;59.976;30.316;2024-03-29T01:25:29;99594.47;;;8.44;51.66
75855;BME280;64502;59.976;30.316;2024-03-29T01:27:54;99590.50;;;8.37;51.11
75855;BME280;64502;59.976;30.316;2024-03-29T01:30:20;99594.59;;;8.29;50.77
75855;BME280;64502;59.976;30.316;2024-03-29T01:32:47;99590.59;;;8.23;51.38
75855;BME280;64502;59.976;30.316;2024-03-29T01:35:13;99586.41;;;8.20;52.12
75855;BME280;64502;59.976;30.316;2024-03-29T01:37:57;99580.41;;;8.18;51.29
75855;BME280;64502;59.976;30.316;2024-03-29T01:40:22;99581.97;;;8.21;52.50
75855;BME280;64502;59.976;30.316;2024-03-29T01:42:52;99566.88;;;8.25;51.09
75855;BME280;64502;59.976;30.316;2024-03-29T01:45:18;99568.25;;;8.30;51.75
75855;BME280;64502;59.976;30.316;2024-03-29T01:47:43;99559.09;;;8.36;52.04
75855;BME280;64502;59.976;30.316;2024-03-29T01:50:09;99564.78;;;8.42;50.62
75855;BME280;64502;59.976;30.316;2024-03-29T01:52:35;99556.59;;;8.47;51.81
75855;BME280;64502;59.976;30.316;2024-03-29T01:55:01;99552.84;;;8.51;50.87
75855;BME280;64502;59.976;30.316;2024-03-29T01:57:27;99553.47;;;8.55;51.49
75855;BME280;64502;59.976;30.316;2024-03-29T01:59:53;99552.28;;;8.59;50.84
75855;BME280;64502;59.976;30.316;2024-03-29T02:02:18;99545.16;;;8.61;50.88
75855;BME280;64502;59.976;30.316;2024-03-29T02:04:44;99538.00;;;8.63;50.17
75855;BME280;64502;59.976;30.316;2024-03-29T02:07:10;99544.94;;;8.64;50.48
75855;BME280;64502;59.976;30.316;2024-03-29T02:09:35;99538.00;;;8.63;51.22
75855;BME280;64502;59.976;30.316;2024-03-29T02:12:01;99527.47;;;8.63;50.87
75855;BME280;64502;59.976;30.316;2024-03-29T02:14:27;99531.69;;;8.65;49.78
75855;BME280;64502;59.976;30.316;2024-03-29T02:16:52;99531.78;;;8.64;50.07
75855;BME280;64502;59.976;30.316;2024-03-29T02:19:18;99531.78;;;8.64;48.93
75855;BME280;64502;59.976;30.316;2024-03-29T02:21:48;99526.44;;;8.65;49.05
75855;BME280;64502;59.976;30.316;2024-03-29T02:24:14;99513.59;;;8.61;49.06
75855;BME280;64502;59.976;30.316;2024-03-29T02:26:43;99518.84;;;8.61;49.93
75855;BME280;64502;59.976;30.316;2024-03-29T02:29:10;99519.69;;;8.61;49.76
75855;BME280;64502;59.976;30.316;2024-03-29T02:31:54;99518.75;;;8.62;50.45
75855;BME280;64502;59.976;30.316;2024-03-29T02:34:20;99528.63;;;8.59;48.91
75855;BME280;64502;59.976;30.316;2024-03-29T02:36:45;99522.53;;;8.58;49.58
75855;BME280;64502;59.976;30.316;2024-03-29T02:39:11;99520.88;;;8.57;50.51
75855;BME280;64502;59.976;30.316;2024-03-29T02:41:38;99526.13;;;8.57;49.24
75855;BME280;64502;59.976;30.316;2024-03-29T02:44:04;99523.59;;;8.56;49.35
75855;BME280;64502;59.976;30.316;2024-03-29T02:46:30;99523.59;;;8.56;49.55
75855;BME280;64502;59.976;30.316;2024-03-29T02:48:55;99528.75;;;8.57;50.48
75855;BME280;64502;59.976;30.316;2024-03-29T02:51:21;99526.13;;;8.57;50.03
75855;BME280;64502;59.976;30.316;2024-03-29T02:53:46;99528.63;;;8.59;49.84
75855;BME280;64502;59.976;30.316;2024-03-29T02:56:12;99512.97;;;8.57;51.01
75855;BME280;64502;59.976;30.316;2024-03-29T02:58:58;99514.56;;;8.60;49.01
75855;BME280;64502;59.976;30.316;2024-03-29T03:01:24;99517.19;;;8.60;50.22
75855;BME280;64502;59.976;30.316;2024-03-29T03:03:50;99524.09;;;8.61;50.27
75855;BME280;64502;59.976;30.316;2024-03-29T03:06:15;99511.91;;;8.60;50.32
75855;BME280;64502;59.976;30.316;2024-03-29T03:08:42;99510.13;;;8.60;50.68
75855;BME280;64502;59.976;30.316;2024-03-29T03:11:26;99510.00;;;8.62;50.26
75855;BME280;64502;59.976;30.316;2024-03-29T03:13:52;99502.97;;;8.62;50.09
75855;BME280;64502;59.976;30.316;2024-03-29T03:16:17;99509.91;;;8.63;51.30
75855;BME280;64502;59.976;30.316;2024-03-29T03:18:43;99495.94;;;8.63;51.50
75855;BME280;64502;59.976;30.316;2024-03-29T03:21:27;99506.31;;;8.64;51.03
75855;BME280;64502;59.976;30.316;2024-03-29T03:26:38;99489.72;;;8.64;51.33
75855;BME280;64502;59.976;30.316;2024-03-29T03:29:04;99492.25;;;8.65;49.73
75855;BME280;64502;59.976;30.316;2024-03-29T03:31:31;99478.13;;;8.66;51.12
75855;BME280;64502;59.976;30.316;2024-03-29T03:33:56;99483.31;;;8.68;50.96
75855;BME280;64502;59.976;30.316;2024-03-29T03:36:22;99476.25;;;8.69;50.62
75855;BME280;64502;59.976;30.316;2024-03-29T03:38:48;99484.88;;;8.71;50.78
75855;BME280;64502;59.976;30.316;2024-03-29T03:41:14;99480.47;;;8.71;49.89
75855;BME280;64502;59.976;30.316;2024-03-29T03:43:40;99478.66;;;8.72;50.48
75855;BME280;64502;59.976;30.316;2024-03-29T03:46:23;99470.78;;;8.72;51.05
75855;BME280;64502;59.976;30.316;2024-03-29T03:48:49;99479.63;;;8.71;51.29
75855;BME280;64502;59.976;30.316;2024-03-29T03:51:15;99476.88;;;8.72;51.43
75855;BME280;64502;59.976;30.316;2024-03-29T03:53:41;99482.25;;;8.71;51.52
75855;BME280;64502;59.976;30.316;2024-03-29T03:56:06;99478.75;;;8.70;51.06
75855;BME280;64502;59.976;30.316;2024-03-29T03:58:32;99470.88;;;8.70;50.90
75855;BME280;64502;59.976;30.316;2024-03-29T04:01:04;99465.50;;;8.72;50.26
75855;BME280;64502;59.976;30.316;2024-03-29T04:03:31;99472.44;;;8.73;51.30
75855;BME280;64502;59.976;30.316;2024-03-29T04:05:57;99464.56;;;8.73;51.32
75855;BME280;64502;59.976;30.316;2024-03-29T04:08:23;99460.03;;;8.75;51.66
75855;BME280;64502;59.976;30.316;2024-03-29T04:10:50;99457.41;;;8.75;51.41
75855;BME280;64502;59.976;30.316;2024-03-29T04:13:17;99450.47;;;8.74;51.59
75855;BME280;64502;59.976;30.316;2024-03-29T04:15:43;99451.22;;;8.76;51.10
75855;BME280;64502;59.976;30.316;2024-03-29T04:18:08;99456.47;;;8.76;51.31
75855;BME280;64502;59.976;30.316;2024-03-29T04:20:34;99452.75;;;8.78;51.67
75855;BME280;64502;59.976;30.316;2024-03-29T04:23:00;99451.00;;;8.79;51.10
75855;BME280;64502;59.976;30.316;2024-03-29T04:25:25;99445.59;;;8.80;51.70
75855;BME280;64502;59.976;30.316;2024-03-29T04:27:53;99449.94;;;8.81;51.26
75855;BME280;64502;59.976;30.316;2024-03-29T04:30:19;99444.53;;;8.83;51.54
75855;BME280;64502;59.976;30.316;2024-03-29T04:32:45;99436.56;;;8.84;51.50
75855;BME280;64502;59.976;30.316;2024-03-29T04:35:10;99445.16;;;8.86;52.20
75855;BME280;64502;59.976;30.316;2024-03-29T04:37:36;99434.63;;;8.86;51.51
75855;BME280;64502;59.976;30.316;2024-03-29T04:40:02;99433.59;;;8.89;51.85
75855;BME280;64502;59.976;30.316;2024-03-29T04:42:29;99432.75;;;8.88;51.97
75855;BME280;64502;59.976;30.316;2024-03-29T04:44:54;99433.47;;;8.91;51.27
75855;BME280;64502;59.976;30.316;2024-03-29T04:47:20;99428.97;;;8.93;52.49
75855;BME280;64502;59.976;30.316;2024-03-29T04:52:30;99425.16;;;8.97;51.31
75855;BME280;64502;59.976;30.316;2024-03-29T04:54:55;99423.34;;;8.97;53.08
75855;BME280;64502;59.976;30.316;2024-03-29T04:57:21;99422.50;;;8.97;51.50
75855;BME280;64502;59.976;30.316;2024-03-29T04:59:46;99426.94;;;8.96;52.55
75855;BME280;64502;59.976;30.316;2024-03-29T05:02:12;99419.88;;;8.97;51.14
75855;BME280;64502;59.976;30.316;2024-03-29T05:04:39;99417.47;;;8.94;52.26
75855;BME280;64502;59.976;30.316;2024-03-29T05:07:06;99426.94;;;8.96;51.46
75855;BME280;64502;59.976;30.316;2024-03-29T05:09:31;99418.31;;;8.94;52.64
75855;BME280;64502;59.976;30.316;2024-03-29T05:11:57;99420.00;;;8.95;51.36
75855;BME280;64502;59.976;30.316;2024-03-29T05:14:23;99412.13;;;8.95;51.95
75855;BME280;64502;59.976;30.316;2024-03-29T05:16:49;99414.84;;;8.94;52.04
75855;BME280;64502;59.976;30.316;2024-03-29T05:19:16;99409.59;;;8.94;51.65
75855;BME280;64502;59.976;30.316;2024-03-29T05:21:42;99404.44;;;8.92;53.13
75855;BME280;64502;59.976;30.316;2024-03-29T05:24:09;99399.28;;;8.91;53.63
75855;BME280;64502;59.976;30.316;2024-03-29T05:26:36;99392.22;;;8.91;53.06
75855;BME280;64502;59.976;30.316;2024-03-29T05:29:02;99388.53;;;8.94;53.73
75855;BME280;64502;59.976;30.316;2024-03-29T05:31:29;99392.84;;;8.95;52.58
75855;BME280;64502;59.976;30.316;2024-03-29T05:33:56;99387.47;;;8.96;54.20
75855;BME280;64502;59.976;30.316;2024-03-29T05:36:21;99394.06;;;9.02;51.83
75855;BME280;64502;59.976;30.316;2024-03-29T05:38:49;99384.16;;;9.05;52.40
75855;BME280;64502;59.976;30.316;2024-03-29T05:41:14;99378.91;;;9.05;52.86
75855;BME280;64502;59.976;30.316;2024-03-29T05:43:40;99390.28;;;9.06;52.34
75855;BME280;64502;59.976;30.316;2024-03-29T05:46:06;99388.38;;;9.08;53.70
75855;BME280;64502;59.976;30.316;2024-03-29T05:48:31;99375.09;;;9.09;53.62
75855;BME280;64502;59.976;30.316;2024-03-29T05:50:57;99374.03;;;9.12;54.18
75855;BME280;64502;59.976;30.316;2024-03-29T05:53:42;99383.28;;;9.18;52.10
75855;BME280;64502;59.976;30.316;2024-03-29T05:56:08;99382.31;;;9.19;53.28
75855;BME280;64502;59.976;30.316;2024-03-29T05:58:34;99373.13;;;9.24;52.51
75855;BME280;64502;59.976;30.316;2024-03-29T06:00:59;99381.28;;;9.32;53.13
75855;BME280;64502;59.976;30.316;2024-03-29T06:03:25;99371.03;;;9.41;53.78
75855;BME280;64502;59.976;30.316;2024-03-29T06:05:51;99376.69;;;9.47;52.65
75855;BME280;64502;59.976;30.316;2024-03-29T06:08:16;99376.13;;;9.55;52.67
75855;BME280;64502;59.976;30.316;2024-03-29T06:10:43;99372.19;;;9.61;51.73
75855;BME280;64502;59.976;30.316;2024-03-29T06:13:08;99367.03;;;9.70;52.08
75855;BME280;64502;59.976;30.316;2024-03-29T06:15:43;99371.81;;;9.76;52.44
75855;BME280;64502;59.976;30.316;2024-03-29T06:18:41;99361.69;;;9.83;53.00
75855;BME280;64502;59.976;30.316;2024-03-29T06:21:06;99365.63;;;9.89;51.30
75855;BME280;64502;59.976;30.316;2024-03-29T06:23:32;99352.94;;;9.94;51.82
75855;BME280;64502;59.976;30.316;2024-03-29T06:25:57;99361.19;;;10.00;51.82
75855;BME280;64502;59.976;30.316;2024-03-29T06:28:24;99360.84;;;10.05;51.60
75855;BME280;64502;59.976;30.316;2024-03-29T06:30:49;99355.81;;;10.13;52.01
75855;BME280;64502;59.976;30.316;2024-03-29T06:33:16;99343.59;;;10.23;51.59
75855;BME280;64502;59.976;30.316;2024-03-29T06:35:41;99341.72;;;10.37;50.80
75855;BME280;64502;59.976;30.316;2024-03-29T06:38:07;99346.56;;;10.53;50.61
75855;BME280;64502;59.976;30.316;2024-03-29T06:40:34;99350.75;;;10.66;51.04
75855;BME280;64502;59.976;30.316;2024-03-29T06:42:59;99349.88;;;10.77;50.52
75855;BME280;64502;59.976;30.316;2024-03-29T06:45:26;99356.34;;;10.84;50.33
75855;BME280;64502;59.976;30.316;2024-03-29T06:47:52;99345.91;;;10.83;50.30
75855;BME280;64502;59.976;30.316;2024-03-29T06:50:37;99341.09;;;10.88;50.24
75855;BME280;64502;59.976;30.316;2024-03-29T06:53:03;99340.16;;;10.89;50.32
75855;BME280;64502;59.976;30.316;2024-03-29T06:55:30;99346.72;;;10.95;49.57
75855;BME280;64502;59.976;30.316;2024-03-29T06:57:56;99340.38;;;10.97;50.38
75855;BME280;64502;59.976;30.316;2024-03-29T07:00:22;99346.09;;;11.02;49.93
75855;BME280;64502;59.976;30.316;2024-03-29T07:02:48;99341.66;;;11.03;50.15
75855;BME280;64502;59.976;30.316;2024-03-29T07:05:13;99335.16;;;11.07;50.15
75855;BME280;64502;59.976;30.316;2024-03-29T07:07:39;99331.41;;;11.09;49.73
75855;BME280;64502;59.976;30.316;2024-03-29T07:10:06;99338.59;;;11.19;49.53
75855;BME280;64502;59.976;30.316;2024-03-29T07:12:33;99331.09;;;11.24;49.25
75855;BME280;64502;59.976;30.316;2024-03-29T07:15:19;99345.63;;;11.29;49.41
75855;BME280;64502;59.976;30.316;2024-03-29T07:17:44;99338.53;;;11.30;49.12
75855;BME280;64502;59.976;30.316;2024-03-29T07:20:10;99339.13;;;11.33;49.79
75855;BME280;64502;59.976;30.316;2024-03-29T07:22:36;99338.13;;;11.34;49.38
75855;BME280;64502;59.976;30.316;2024-03-29T07:25:02;99339.13;;;11.33;49.11
75855;BME280;64502;59.976;30.316;2024-03-29T07:27:27;99338.75;;;11.38;49.86
75855;BME280;64502;59.976;30.316;2024-03-29T07:29:59;99337.66;;;11.41;49.40
75855;BME280;64502;59.976;30.316;2024-03-29T07:32:25;99326.81;;;11.44;49.45
75855;BME280;64502;59.976;30.316;2024-03-29T07:34:50;99336.78;;;11.40;49.60
75855;BME280;64502;59.976;30.316;2024-03-29T07:37:16;99334.66;;;11.34;50.58
75855;BME280;64502;59.976;30.316;2024-03-29T07:42:27;99333.13;;;11.52;50.00
75855;BME280;64502;59.976;30.316;2024-03-29T07:44:53;99325.97;;;11.64;50.08
75855;BME280;64502;59.976;30.316;2024-03-29T07:47:20;99320.59;;;11.75;49.25
75855;BME280;64502;59.976;30.316;2024-03-29T07:49:47;99318.13;;;11.84;49.72
75855;BME280;64502;59.976;30.316;2024-03-29T07:52:12;99321.88;;;12.02;49.47
75855;BME280;64502;59.976;30.316;2024-03-29T07:54:38;99316.66;;;12.21;48.40
75855;BME280;64502;59.976;30.316;2024-03-29T07:57:04;99310.16;;;12.35;48.58
75855;BME280;64502;59.976;30.316;2024-03-29T07:59:29;99296.41;;;12.51;48.21
75855;BME280;64502;59.976;30.316;2024-03-29T08:01:55;99297.84;;;12.75;47.53
75855;BME280;64502;59.976;30.316;2024-03-29T08:04:23;99299.94;;;12.91;47.77
75855;BME280;64502;59.976;30.316;2024-03-29T08:06:51;99303.72;;;13.07;47.20
75855;BME280;64502;59.976;30.316;2024-03-29T08:09:17;99294.94;;;13.07;47.28
75855;BME280;64502;59.976;30.316;2024-03-29T08:11:43;99292.38;;;13.25;46.39
75855;BME280;64502;59.976;30.316;2024-03-29T08:14:27;99297.00;;;13.42;45.62
75855;BME280;64502;59.976;30.316;2024-03-29T08:16:53;99295.31;;;13.51;45.20
75855;BME280;64502;59.976;30.316;2024-03-29T08:19:19;99284.72;;;13.51;45.49
75855;BME280;64502;59.976;30.316;2024-03-29T08:21:45;99295.59;;;13.48;46.30
75855;BME280;64502;59.976;30.316;2024-03-29T08:24:11;99291.44;;;13.45;46.24
75855;BME280;64502;59.976;30.316;2024-03-29T08:26:37;99292.25;;;13.46;45.48
75855;BME280;64502;59.976;30.316;2024-03-29T08:29:03;99283.03;;;13.50;46.11
75855;BME280;64502;59.976;30.316;2024-03-29T08:31:28;99278.97;;;13.55;46.56
75855;BME280;64502;59.976;30.316;2024-03-29T08:33:54;99277.88;;;13.48;46.04
75855;BME280;64502;59.976;30.316;2024-03-29T08:36:20;99278.06;;;13.37;45.96
75855;BME280;64502;59.976;30.316;2024-03-29T08:38:45;99280.66;;;13.47;45.73
75855;BME280;64502;59.976;30.316;2024-03-29T08:41:12;99269.47;;;13.63;46.19
75855;BME280;64502;59.976;30.316;2024-03-29T08:43:38;99275.81;;;13.80;45.16
75855;BME280;64502;59.976;30.316;2024-03-29T08:46:04;99268.81;;;13.88;45.72
75855;BME280;64502;59.976;30.316;2024-03-29T08:48:29;99263.19;;;14.01;45.39
75855;BME280;64502;59.976;30.316;2024-03-29T08:50:55;99262.66;;;13.97;45.41
75855;BME280;64502;59.976;30.316;2024-03-29T08:53:39;99252.84;;;14.08;45.48
75855;BME280;64502;59.976;30.316;2024-03-29T08:56:05;99251.75;;;14.01;44.70
75855;BME280;64502;59.976;30.316;2024-03-29T08:58:30;99246.44;;;14.01;44.63
75855;BME280;64502;59.976;30.316;2024-03-29T09:00:56;99254.94;;;14.04;45.15
75855;BME280;64502;59.976;30.316;2024-03-29T09:03:23;99256.84;;;14.12;45.02
75855;BME280;64502;59.976;30.316;2024-03-29T09:05:49;99255.47;;;14.35;45.39
75855;BME280;64502;59.976;30.316;2024-03-29T09:08:16;99247.09;;;14.76;43.99
75855;BME280;64502;59.976;30.316;2024-03-29T09:10:42;99250.69;;;15.28;43.18
75855;BME280;64502;59.976;30.316;2024-03-29T09:13:08;99245.25;;;15.64;41.54
75855;BME280;64502;59.976;30.316;2024-03-29T09:15:34;99236.91;;;15.85;41.70
75855;BME280;64502;59.976;30.316;2024-03-29T09:18:00;99241.25;;;15.94;41.15
75855;BME280;64502;59.976;30.316;2024-03-29T09:20:35;99236.91;;;15.85;41.71
75855;BME280;64502;59.976;30.316;2024-03-29T09:23:01;99227.38;;;15.74;41.83
75855;BME280;64502;59.976;30.316;2024-03-29T09:25:26;99237.38;;;15.54;42.73
75855;BME280;64502;59.976;30.316;2024-03-29T09:27:52;99234.63;;;15.38;42.52
75855;BME280;64502;59.976;30.316;2024-03-29T09:30:18;99232.41;;;15.25;43.08
75855;BME280;64502;59.976;30.316;2024-03-29T09:32:45;99230.06;;;15.04;42.53
75855;BME280;64502;59.976;30.316;2024-03-29T09:35:13;99220.66;;;14.92;43.63
75855;BME280;64502;59.976;30.316;2024-03-29T09:37:38;99232.38;;;14.81;43.66
75855;BME280;64502;59.976;30.316;2024-03-29T09:40:07;99229.19;;;14.78;44.41
75855;BME280;64502;59.976;30.316;2024-03-29T09:42:33;99228.50;;;14.76;43.74
75855;BME280;64502;59.976;30.316;2024-03-29T09:47:44;99233.06;;;14.65;43.66
75855;BME280;64502;59.976;30.316;2024-03-29T09:50:10;99225.16;;;14.56;44.57
75855;BME280;64502;59.976;30.316;2024-03-29T09:52:36;99232.72;;;14.51;44.27
75855;BME280;64502;59.976;30.316;2024-03-29T09:55:03;99233.03;;;14.48;44.71
75855;BME280;64502;59.976;30.316;2024-03-29T09:57:29;99228.94;;;14.35;44.92
75855;BME280;64502;59.976;30.316;2024-03-29T10:00:14;99235.28;;;14.25;45.06
75855;BME280;64502;59.976;30.316;2024-03-29T10:02:40;99245.84;;;14.07;46.18
75855;BME280;64502;59.976;30.316;2024-03-29T10:05:09;99237.78;;;13.98;45.94
75855;BME280;64502;59.976;30.316;2024-03-29T10:07:36;99241.28;;;13.99;45.81
75855;BME280;64502;59.976;30.316;2024-03-29T10:10:22;99237.28;;;14.13;46.17
75855;BME280;64502;59.976;30.316;2024-03-29T10:12:47;99228.44;;;14.22;46.52
75855;BME280;64502;59.976;30.316;2024-03-29T10:15:13;99229.91;;;14.34;46.25
75855;BME280;64502;59.976;30.316;2024-03-29T10:17:47;99228.03;;;14.44;45.68
75855;BME280;64502;59.976;30.316;2024-03-29T10:20:17;99231.50;;;14.45;45.62
75855;BME280;64502;59.976;30.316;2024-03-29T10:22:43;99233.97;;;14.56;45.23
75855;BME280;64502;59.976;30.316;2024-03-29T10:25:10;99229.97;;;14.42;45.76
75855;BME280;64502;59.976;30.316;2024-03-29T10:27:36;99229.47;;;14.39;44.84
75855;BME280;64502;59.976;30.316;2024-03-29T10:30:03;99236.81;;;14.27;45.26
75855;BME280;64502;59.976;30.316;2024-03-29T10:32:29;99233.38;;;14.17;46.16
75855;BME280;64502;59.976;30.316;2024-03-29T10:34:55;99228.41;;;14.04;46.27
75855;BME280;64502;59.976;30.316;2024-03-29T10:37:20;99226.13;;;13.91;46.54
75855;BME280;64502;59.976;30.316;2024-03-29T10:39:52;99228.94;;;13.80;46.97
75855;BME280;64502;59.976;30.316;2024-03-29T10:42:22;99228.84;;;13.72;47.27
75855;BME280;64502;59.976;30.316;2024-03-29T10:44:50;99223.47;;;13.54;47.37
75855;BME280;64502;59.976;30.316;2024-03-29T10:47:19;99218.75;;;13.48;48.39
75855;BME280;64502;59.976;30.316;2024-03-29T10:49:50;99221.00;;;13.43;48.38
75855;BME280;64502;59.976;30.316;2024-03-29T10:52:34;99227.44;;;13.40;48.44
75855;BME280;64502;59.976;30.316;2024-03-29T10:55:01;99215.03;;;13.21;50.17
75855;BME280;64502;59.976;30.316;2024-03-29T10:57:27;99216.56;;;13.14;50.74
75855;BME280;64502;59.976;30.316;2024-03-29T11:00:11;99214.03;;;13.22;48.74
75855;BME280;64502;59.976;30.316;2024-03-29T11:05:35;99204.09;;;13.53;48.85
75855;BME280;64502;59.976;30.316;2024-03-29T11:08:06;99207.19;;;13.76;48.73
75855;BME280;64502;59.976;30.316;2024-03-29T11:10:45;99203.72;;;14.04;48.60
75855;BME280;64502;59.976;30.316;2024-03-29T11:16:18;99195.91;;;14.65;47.41
75855;BME280;64502;59.976;30.316;2024-03-29T11:18:45;99187.13;;;14.91;46.65
75855;BME280;64502;59.976;30.316;2024-03-29T11:21:13;99188.19;;;15.24;46.67
75855;BME280;64502;59.976;30.316;2024-03-29T11:26:32;99174.34;;;15.73;44.89
75855;BME280;64502;59.976;30.316;2024-03-29T11:28:58;99181.38;;;15.90;43.99
75855;BME280;64502;59.976;30.316;2024-03-29T11:31:24;99181.75;;;15.95;44.55
75855;BME280;64502;59.976;30.316;2024-03-29T11:33:52;99182.28;;;15.99;44.23
75855;BME280;64502;59.976;30.316;2024-03-29T11:36:24;99183.25;;;15.98;44.76
75855;BME280;64502;59.976;30.316;2024-03-29T11:39:09;99168.31;;;16.05;44.33
75855;BME280;64502;59.976;30.316;2024-03-29T11:41:48;99180.47;;;16.08;44.16
75855;BME280;64502;59.976;30.316;2024-03-29T11:44:14;99179.78;;;16.06;44.11
75855;BME280;64502;59.976;30.316;2024-03-29T11:46:40;99166.66;;;16.04;44.08
75855;BME280;64502;59.976;30.316;2024-03-29T11:49:05;99167.16;;;16.08;43.52
75855;BME280;64502;59.976;30.316;2024-03-29T11:51:31;99166.34;;;16.15;43.98
75855;BME280;64502;59.976;30.316;2024-03-29T11:53:57;99162.22;;;16.29;43.50
75855;BME280;64502;59.976;30.316;2024-03-29T11:56:22;99156.06;;;16.45;43.13
75855;BME280;64502;59.976;30.316;2024-03-29T11:58:48;99151.59;;;16.62;42.45
75855;BME280;64502;59.976;30.316;2024-03-29T12:01:14;99149.56;;;16.72;42.58
75855;BME280;64502;59.976;30.316;2024-03-29T12:03:41;99135.28;;;16.81;41.97
75855;BME280;64502;59.976;30.316;2024-03-29T12:06:07;99133.59;;;16.97;42.09
75855;BME280;64502;59.976;30.316;2024-03-29T12:08:43;99139.03;;;17.28;41.88
75855;BME280;64502;59.976;30.316;2024-03-29T12:13:54;99134.97;;;17.88;40.67
75855;BME280;64502;59.976;30.316;2024-03-29T12:16:20;99129.03;;;18.09;39.87
75855;BME280;64502;59.976;30.316;2024-03-29T12:18:48;99130.31;;;18.36;39.78
75855;BME280;64502;59.976;30.316;2024-03-29T12:21:14;99121.53;;;18.50;39.42
75855;BME280;64502;59.976;30.316;2024-03-29T12:23:47;99117.97;;;18.58;39.32
75855;BME280;64502;59.976;30.316;2024-03-29T12:26:12;99119.25;;;18.47;38.92
75855;BME280;64502;59.976;30.316;2024-03-29T12:28:38;99121.94;;;18.62;38.96
75855;BME280;64502;59.976;30.316;2024-03-29T12:31:03;99110.88;;;18.88;38.71
75855;BME280;64502;59.976;30.316;2024-03-29T12:33:29;99109.88;;;19.19;38.33
75855;BME280;64502;59.976;30.316;2024-03-29T12:35:57;99115.31;;;19.55;37.41
75855;BME280;64502;59.976;30.316;2024-03-29T12:38:23;99103.41;;;20.09;36.58
75855;BME280;64502;59.976;30.316;2024-03-29T12:40:49;99121.06;;;20.68;36.02
75855;BME280;64502;59.976;30.316;2024-03-29T12:43:19;99114.13;;;21.01;35.42
75855;BME280;64502;59.976;30.316;2024-03-29T12:45:46;99113.13;;;21.09;35.06
75855;BME280;64502;59.976;30.316;2024-03-29T12:48:20;99120.91;;;21.32;35.55
75855;BME280;64502;59.976;30.316;2024-03-29T12:50:46;99109.22;;;21.40;34.33
75855;BME280;64502;59.976;30.316;2024-03-29T12:53:13;99110.56;;;21.29;34.08
75855;BME280;64502;59.976;30.316;2024-03-29T12:55:43;99124.06;;;20.79;35.35
75855;BME280;64502;59.976;30.316;2024-03-29T12:58:12;99121.31;;;20.08;35.62
75855;BME280;64502;59.976;30.316;2024-03-29T13:00:38;99120.94;;;19.60;36.60
75855;BME280;64502;59.976;30.316;2024-03-29T13:03:05;99124.91;;;19.05;37.12
75855;BME280;64502;59.976;30.316;2024-03-29T13:05:31;99121.78;;;18.63;38.23
75855;BME280;64502;59.976;30.316;2024-03-29T13:08:04;99120.13;;;18.39;38.84
75855;BME280;64502;59.976;30.316;2024-03-29T13:10:30;99114.00;;;18.08;39.32
75855;BME280;64502;59.976;30.316;2024-03-29T13:12:56;99118.56;;;17.68;40.06
75855;BME280;64502;59.976;30.316;2024-03-29T13:15:27;99112.34;;;17.36;41.17
75855;BME280;64502;59.976;30.316;2024-03-29T13:20:39;99114.28;;;16.95;42.03
75855;BME280;64502;59.976;30.316;2024-03-29T13:23:07;99113.63;;;16.84;42.35